Time;durP1;ratioP1;P1;durP2;ratioP2;P2;SDS_P1;SDS_P2;PMS_P1;PMS_P2;Temp;Humidity;BMP_temperature;BMP_pressure;BME280_temperature;BME280_humidity;BME280_pressure;Samples;Min_cycle;Max_cycle;Signal;HPM_P1;HPM_P2
2022/10/22 00:01:02;;;;;;;7.85;4.05;;;16.60;99.90;;;;;;5019936;28;20492;-71
2022/10/22 00:03:28;;;;;;;7.15;3.20;;;16.60;99.90;;;;;;5018744;28;20026;-72
2022/10/22 00:05:53;;;;;;;6.70;3.10;;;16.60;99.90;;;;;;5017552;28;20067;-72
2022/10/22 00:08:19;;;;;;;8.07;2.60;;;16.60;99.90;;;;;;5017074;28;20473;-72
2022/10/22 00:10:45;;;;;;;9.68;5.63;;;16.50;99.90;;;;;;5017329;28;20033;-72
2022/10/22 00:13:11;;;;;;;10.85;6.00;;;16.60;99.90;;;;;;5017104;28;20380;-72
2022/10/22 00:15:36;;;;;;;14.40;8.40;;;16.50;99.90;;;;;;5017084;28;20033;-72
2022/10/22 00:18:02;;;;;;;17.67;10.00;;;16.50;99.90;;;;;;5016914;28;20113;-72
2022/10/22 00:20:27;;;;;;;15.63;7.70;;;16.50;99.90;;;;;;5017095;28;20033;-72
2022/10/22 00:22:53;;;;;;;11.48;7.40;;;16.40;99.90;;;;;;5016812;28;20021;-72
2022/10/22 00:25:19;;;;;;;10.60;5.85;;;16.40;99.90;;;;;;5017173;28;20030;-72
2022/10/22 00:27:44;;;;;;;11.65;6.07;;;16.40;99.90;;;;;;5016871;28;20036;-72
2022/10/22 00:30:11;;;;;;;11.93;6.47;;;16.40;99.90;;;;;;5016647;28;20509;-72
2022/10/22 00:32:36;;;;;;;10.05;6.35;;;16.40;99.90;;;;;;5016612;28;20529;-71
2022/10/22 00:35:02;;;;;;;11.73;6.30;;;16.40;99.90;;;;;;5016684;28;20030;-72
2022/10/22 00:37:29;;;;;;;8.15;4.57;;;16.40;99.90;;;;;;5016822;28;20033;-71
2022/10/22 00:39:55;;;;;;;7.22;4.45;;;16.40;99.90;;;;;;5016990;28;20038;-71
2022/10/22 00:42:24;;;;;;;9.20;4.20;;;16.40;99.90;;;;;;5016828;28;20112;-71
2022/10/22 00:45:20;;;;;;;6.82;4.18;;;16.40;99.90;;;;;;5016354;28;20018;-71
2022/10/22 00:47:58;;;;;;;9.20;4.25;;;16.50;99.90;;;;;;5016682;28;20045;-71
2022/10/22 00:50:48;;;;;;;7.90;4.40;;;16.40;99.90;;;;;;5016933;28;20046;-71
2022/10/22 00:53:17;;;;;;;8.63;4.30;;;16.50;99.90;;;;;;5016607;28;20112;-71
2022/10/22 00:55:45;;;;;;;6.53;4.10;;;16.40;99.90;;;;;;5015666;28;20022;-71
2022/10/22 00:58:12;;;;;;;7.35;4.13;;;16.50;99.90;;;;;;5021191;28;20076;-69
2022/10/22 01:00:38;;;;;;;5.40;3.97;;;16.40;99.90;;;;;;5018759;28;20555;-72
2022/10/22 01:03:04;;;;;;;5.82;4.10;;;16.30;99.90;;;;;;5016344;28;20033;-72
2022/10/22 01:05:35;;;;;;;8.90;4.00;;;16.30;99.90;;;;;;5016253;28;20413;-72
2022/10/22 01:08:01;;;;;;;10.93;5.10;;;16.30;99.90;;;;;;5016012;28;20030;-71
2022/10/22 01:10:29;;;;;;;9.00;4.50;;;16.20;99.90;;;;;;5016338;28;20556;-71
2022/10/22 01:12:55;;;;;;;6.43;4.25;;;16.20;99.90;;;;;;5016353;28;20014;-70
2022/10/22 01:15:49;;;;;;;7.80;4.55;;;16.10;99.90;;;;;;5015966;28;20033;-72
2022/10/22 01:18:44;;;;;;;9.00;4.45;;;16.10;99.90;;;;;;5016013;28;20025;-71
2022/10/22 01:21:45;;;;;;;5.55;3.63;;;16.10;99.90;;;;;;5004723;28;20026;-71
2022/10/22 01:24:37;;;;;;;7.60;4.43;;;16.10;99.90;;;;;;5015714;28;20384;-70
2022/10/22 01:27:25;;;;;;;7.72;4.47;;;16.00;99.90;;;;;;5015617;28;20030;-71
2022/10/22 01:30:05;;;;;;;6.80;4.07;;;16.00;99.90;;;;;;5015668;28;20121;-71
2022/10/22 01:32:38;;;;;;;4.65;3.80;;;15.90;99.90;;;;;;5015860;28;20057;-72
2022/10/22 01:35:08;;;;;;;9.52;4.55;;;15.90;99.90;;;;;;5015553;28;20030;-71
2022/10/22 01:37:41;;;;;;;7.32;4.18;;;15.80;99.90;;;;;;5015718;28;20083;-72
2022/10/22 01:40:08;;;;;;;6.43;3.75;;;15.80;99.90;;;;;;5015482;28;20072;-72
2022/10/22 01:42:34;;;;;;;6.40;4.28;;;15.80;99.90;;;;;;5015461;28;20481;-72
2022/10/22 01:44:59;;;;;;;7.72;4.60;;;15.80;99.90;;;;;;5015695;28;20088;-72
2022/10/22 01:47:53;;;;;;;6.50;3.95;;;15.70;99.90;;;;;;5015268;28;20046;-71
2022/10/22 01:50:24;;;;;;;;;;;15.60;99.90;;;;;;5015685;28;20037;-72
2022/10/22 01:53:06;;;;;;;6.43;4.00;;;15.60;99.90;;;;;;5015325;28;19913;-71
2022/10/22 01:56:09;;;;;;;8.13;4.05;;;15.60;99.90;;;;;;5020342;28;20109;-68
2022/10/22 01:58:40;;;;;;;9.13;4.95;;;15.60;99.90;;;;;;5015573;28;20030;-71
2022/10/22 02:01:09;;;;;;;9.65;5.20;;;15.60;99.90;;;;;;5014537;28;20053;-71
2022/10/22 02:03:44;;;;;;;7.68;4.95;;;15.60;99.90;;;;;;5015114;28;20049;-72
2022/10/22 02:06:16;;;;;;;6.10;4.18;;;15.60;99.90;;;;;;5014829;28;20025;-71
2022/10/22 02:08:43;;;;;;;7.95;4.82;;;15.60;99.90;;;;;;5014789;28;20037;-72
2022/10/22 02:11:11;;;;;;;7.70;4.32;;;15.60;99.90;;;;;;5015164;28;20034;-73
2022/10/22 02:13:43;;;;;;;6.88;4.20;;;15.50;99.90;;;;;;5014496;28;20379;-73
2022/10/22 02:16:12;;;;;;;10.57;3.95;;;15.50;99.90;;;;;;5014774;28;20038;-73
2022/10/22 02:18:41;;;;;;;7.00;4.45;;;15.50;99.90;;;;;;5014748;28;20374;-73
2022/10/22 02:21:08;;;;;;;6.20;4.50;;;15.50;99.90;;;;;;5014633;28;20057;-73
2022/10/22 02:23:34;;;;;;;7.00;3.75;;;15.40;99.90;;;;;;5014728;28;20032;-73
2022/10/22 02:26:07;;;;;;;9.93;4.40;;;15.40;99.90;;;;;;5014650;28;20466;-73
2022/10/22 02:28:45;;;;;;;6.80;3.80;;;15.50;99.90;;;;;;5014433;28;20104;-73
2022/10/22 02:31:24;;;;;;;7.97;4.28;;;15.40;99.90;;;;;;5014662;28;20026;-73
2022/10/22 02:33:54;;;;;;;7.93;3.83;;;15.40;99.90;;;;;;5014753;28;20034;-73
2022/10/22 02:36:22;;;;;;;5.32;3.30;;;15.40;99.90;;;;;;5014804;28;20022;-73
2022/10/22 02:38:50;;;;;;;8.40;4.07;;;15.40;99.90;;;;;;5014281;28;20543;-73
2022/10/22 02:41:16;;;;;;;7.45;3.78;;;15.40;99.90;;;;;;5014387;28;20480;-74
2022/10/22 02:43:47;;;;;;;8.60;4.32;;;15.40;99.90;;;;;;5014683;28;20033;-73
2022/10/22 02:46:13;;;;;;;7.07;3.95;;;15.40;99.90;;;;;;5015182;28;20033;-72
2022/10/22 02:48:39;;;;;;;6.80;4.07;;;15.30;99.90;;;;;;5019703;28;20131;-71
2022/10/22 02:51:05;;;;;;;6.10;3.83;;;15.30;99.90;;;;;;5021134;28;20026;-73
2022/10/22 02:53:30;;;;;;;7.20;3.53;;;15.30;99.90;;;;;;5014715;28;20030;-73
2022/10/22 02:55:58;;;;;;;11.32;4.25;;;15.30;99.90;;;;;;5014339;28;20033;-73
2022/10/22 02:58:24;;;;;;;10.43;4.40;;;15.40;99.90;;;;;;5013797;28;20528;-73
2022/10/22 03:00:49;;;;;;;8.55;4.18;;;15.30;99.90;;;;;;5014110;28;20072;-73
2022/10/22 03:03:15;;;;;;;6.55;3.88;;;15.30;99.90;;;;;;5014336;28;20056;-73
2022/10/22 03:05:40;;;;;;;5.75;4.28;;;15.30;99.90;;;;;;5013971;28;20026;-72
2022/10/22 03:08:06;;;;;;;8.43;3.80;;;15.20;99.90;;;;;;5014001;28;20032;-73
2022/10/22 03:10:31;;;;;;;6.80;3.85;;;15.30;99.90;;;;;;5013856;28;20030;-73
2022/10/22 03:12:57;;;;;;;9.85;3.95;;;15.30;99.90;;;;;;5013882;28;20046;-73
2022/10/22 03:15:23;;;;;;;8.30;3.50;;;15.30;99.90;;;;;;5013906;28;20072;-72
2022/10/22 03:17:48;;;;;;;7.43;3.80;;;15.30;99.90;;;;;;5013945;28;20381;-73
2022/10/22 03:20:14;;;;;;;9.45;4.13;;;15.30;99.90;;;;;;5013378;28;20033;-73
2022/10/22 03:22:42;;;;;;;8.00;4.20;;;15.30;99.90;;;;;;5014041;28;20026;-73
2022/10/22 03:25:12;;;;;;;7.65;4.00;;;15.30;99.90;;;;;;5013504;28;20030;-73
2022/10/22 03:27:40;;;;;;;9.38;4.40;;;15.30;99.90;;;;;;5013617;28;20037;-73
2022/10/22 03:30:07;;;;;;;8.85;4.10;;;15.20;99.90;;;;;;5013519;28;20057;-73
2022/10/22 03:32:32;;;;;;;13.57;4.70;;;15.20;99.90;;;;;;5013609;28;20030;-73
2022/10/22 03:34:58;;;;;;;6.30;3.58;;;15.20;99.90;;;;;;5013435;28;20060;-73
2022/10/22 03:37:25;;;;;;;7.43;3.38;;;15.20;99.90;;;;;;5013644;28;20026;-73
2022/10/22 03:39:52;;;;;;;9.10;3.70;;;15.20;99.90;;;;;;5013372;28;20030;-73
2022/10/22 03:42:18;;;;;;;7.95;3.63;;;15.20;99.90;;;;;;5013807;28;20022;-73
2022/10/22 03:44:43;;;;;;;8.82;3.25;;;15.20;99.90;;;;;;5013716;28;20426;-73
2022/10/22 03:47:09;;;;;;;8.32;3.92;;;15.30;99.90;;;;;;5013547;28;20481;-73
2022/10/22 03:49:34;;;;;;;13.60;5.72;;;15.30;99.90;;;;;;5019392;28;20030;-73
2022/10/22 03:52:09;;;;;;;7.70;3.35;;;15.20;99.90;;;;;;5014002;28;20037;-72
2022/10/22 03:54:35;;;;;;;8.40;3.88;;;15.20;99.90;;;;;;5013349;28;20049;-72
2022/10/22 03:57:01;;;;;;;11.98;3.80;;;15.20;99.90;;;;;;5013261;28;20056;-72
2022/10/22 03:59:26;;;;;;;4.18;3.15;;;15.20;99.90;;;;;;5013628;28;20431;-72
2022/10/22 04:01:52;;;;;;;9.40;3.30;;;15.20;99.90;;;;;;5013131;28;20377;-72
2022/10/22 04:04:17;;;;;;;6.95;2.92;;;15.30;99.90;;;;;;5013384;28;20066;-72
2022/10/22 04:06:43;;;;;;;6.80;3.40;;;15.30;99.90;;;;;;5013538;28;20097;-72
2022/10/22 04:09:09;;;;;;;11.43;3.75;;;15.30;99.90;;;;;;5013273;28;20620;-72
2022/10/22 04:11:34;;;;;;;5.55;3.10;;;15.40;99.90;;;;;;5013194;28;20021;-73
2022/10/22 04:14:00;;;;;;;6.15;3.33;;;15.40;99.90;;;;;;5013198;28;20022;-73
2022/10/22 04:16:29;;;;;;;9.07;3.20;;;15.40;99.90;;;;;;5013331;28;20105;-73
2022/10/22 04:18:55;;;;;;;10.63;3.45;;;15.40;99.90;;;;;;5013407;28;20030;-72
2022/10/22 04:21:21;;;;;;;8.43;3.67;;;15.40;99.90;;;;;;5013147;28;20099;-71
2022/10/22 04:23:49;;;;;;;7.50;3.50;;;15.40;99.90;;;;;;5013391;28;20193;-72
2022/10/22 04:26:15;;;;;;;6.20;2.20;;;15.40;99.90;;;;;;5013111;28;20152;-72
2022/10/22 04:28:42;;;;;;;8.27;3.13;;;15.30;99.90;;;;;;5012920;28;20054;-72
2022/10/22 04:31:13;;;;;;;6.28;2.67;;;15.30;99.90;;;;;;5014849;28;20028;-72
2022/10/22 04:33:40;;;;;;;6.15;2.58;;;15.30;99.90;;;;;;5016586;28;20486;-72
2022/10/22 04:36:11;;;;;;;4.22;2.22;;;15.30;99.90;;;;;;5016623;28;20025;-72
2022/10/22 04:38:38;;;;;;;8.60;2.55;;;15.20;99.90;;;;;;5016632;28;20102;-72
2022/10/22 04:41:20;;;;;;;4.95;2.38;;;15.30;99.90;;;;;;5016592;28;20030;-72
2022/10/22 04:43:46;;;;;;;6.55;3.05;;;15.30;99.90;;;;;;5016721;28;20462;-71
2022/10/22 04:46:14;;;;;;;7.13;2.83;;;15.30;99.90;;;;;;5023656;28;20026;-74
2022/10/22 04:48:42;;;;;;;7.72;2.60;;;15.30;99.90;;;;;;5018887;28;20129;-72
2022/10/22 04:51:10;;;;;;;7.80;3.08;;;15.30;99.90;;;;;;5014421;28;20022;-72
2022/10/22 04:53:36;;;;;;;6.40;2.38;;;15.30;99.90;;;;;;5015021;28;20033;-73
2022/10/22 04:56:18;;;;;;;5.90;2.67;;;15.40;99.90;;;;;;5015656;28;20225;-72
2022/10/22 04:58:44;;;;;;;7.80;2.65;;;15.40;99.90;;;;;;5016119;28;20026;-73
2022/10/22 05:01:22;;;;;;;10.05;2.60;;;15.40;99.90;;;;;;5016264;28;20040;-73
2022/10/22 05:03:49;;;;;;;5.70;2.35;;;15.40;99.90;;;;;;5016187;28;20021;-73
2022/10/22 05:06:15;;;;;;;6.63;2.42;;;15.40;99.90;;;;;;5015871;28;20026;-73
2022/10/22 05:08:42;;;;;;;6.80;2.40;;;15.50;99.90;;;;;;5016226;28;20041;-72
2022/10/22 05:11:15;;;;;;;7.93;2.20;;;15.40;99.90;;;;;;5016383;28;20092;-72
2022/10/22 05:13:41;;;;;;;10.18;2.90;;;15.50;99.90;;;;;;5016016;28;20037;-73
2022/10/22 05:16:07;;;;;;;7.88;2.25;;;15.50;99.90;;;;;;5015837;28;20022;-73
2022/10/22 05:18:35;;;;;;;6.78;2.72;;;15.50;99.90;;;;;;5016161;28;20489;-74
2022/10/22 05:21:01;;;;;;;5.00;2.25;;;15.50;99.90;;;;;;5016180;28;20022;-73
2022/10/22 05:23:27;;;;;;;7.90;2.38;;;15.50;99.90;;;;;;5015872;28;20599;-74
2022/10/22 05:25:53;;;;;;;6.72;2.17;;;15.50;99.90;;;;;;5015826;28;20025;-73
2022/10/22 05:28:18;;;;;;;8.20;2.75;;;15.50;99.90;;;;;;5015518;28;20053;-73
2022/10/22 05:30:55;;;;;;;6.45;2.80;;;15.50;99.90;;;;;;5015540;28;20488;-73
2022/10/22 05:33:21;;;;;;;11.35;3.00;;;15.50;99.90;;;;;;5015874;28;20045;-73
2022/10/22 05:35:48;;;;;;;6.55;3.10;;;15.50;99.90;;;;;;5015906;28;20382;-74
2022/10/22 05:38:14;;;;;;;8.43;3.00;;;15.50;99.90;;;;;;5015627;28;20034;-73
2022/10/22 05:40:39;;;;;;;5.63;2.60;;;15.50;99.90;;;;;;5015684;28;20496;-73
2022/10/22 05:43:05;;;;;;;7.65;3.08;;;15.50;99.90;;;;;;5021295;28;20113;-72
2022/10/22 05:45:34;;;;;;;11.63;2.65;;;15.50;99.90;;;;;;5017642;28;20046;-73
2022/10/22 05:48:00;;;;;;;7.07;2.60;;;15.40;99.90;;;;;;5015717;28;20030;-73
2022/10/22 05:50:25;;;;;;;7.70;2.75;;;15.40;99.90;;;;;;5015066;28;20022;-73
2022/10/22 05:52:51;;;;;;;8.43;2.55;;;15.40;99.90;;;;;;5015220;28;20033;-73
2022/10/22 05:55:17;;;;;;;6.38;2.75;;;15.50;99.90;;;;;;5015466;28;20057;-73
2022/10/22 05:57:42;;;;;;;10.07;3.05;;;15.40;99.90;;;;;;5015076;28;20022;-72
2022/10/22 06:00:08;;;;;;;9.27;2.80;;;15.40;99.90;;;;;;5015088;28;20030;-73
2022/10/22 06:02:34;;;;;;;9.57;2.70;;;15.40;99.90;;;;;;5015340;28;20026;-73
2022/10/22 06:04:59;;;;;;;6.97;2.55;;;15.30;99.90;;;;;;5015137;28;20470;-73
2022/10/22 06:07:25;;;;;;;13.27;3.53;;;15.40;99.90;;;;;;5015229;28;20461;-73
2022/10/22 06:09:52;;;;;;;6.03;2.70;;;15.30;99.90;;;;;;5014916;28;20088;-78
2022/10/22 06:12:18;;;;;;;8.93;3.10;;;15.30;99.90;;;;;;5014840;28;20466;-77
2022/10/22 06:14:44;;;;;;;8.50;2.47;;;15.30;99.90;;;;;;5014912;28;20040;-77
2022/10/22 06:17:11;;;;;;;12.38;2.67;;;15.30;99.90;;;;;;5029865;28;20036;-77
2022/10/22 06:19:37;;;;;;;8.65;2.90;;;15.40;99.90;;;;;;5035125;28;20036;-77
2022/10/22 06:22:03;;;;;;;7.25;2.40;;;15.40;99.90;;;;;;5034674;28;20112;-77
2022/10/22 06:24:29;;;;;;;7.72;2.15;;;15.40;99.90;;;;;;5034681;28;20025;-77
2022/10/22 06:26:55;;;;;;;6.78;2.40;;;15.40;99.90;;;;;;5034559;28;20472;-78
2022/10/22 06:29:21;;;;;;;5.68;2.13;;;15.50;99.90;;;;;;5034337;28;20061;-78
2022/10/22 06:31:46;;;;;;;8.32;2.90;;;15.50;99.90;;;;;;5034336;28;20021;-73
2022/10/22 06:34:13;;;;;;;7.38;2.05;;;15.60;99.90;;;;;;5034510;28;20032;-73
2022/10/22 06:36:42;;;;;;;8.02;2.17;;;15.60;99.90;;;;;;5034773;28;20018;-73
2022/10/22 06:39:11;;;;;;;7.03;2.40;;;15.70;99.90;;;;;;5037378;28;20104;-73
2022/10/22 06:41:37;;;;;;;7.13;2.33;;;15.70;99.90;;;;;;5034708;28;20357;-74
2022/10/22 06:44:02;;;;;;;10.52;2.60;;;15.70;99.90;;;;;;5034198;28;20026;-74
2022/10/22 06:46:30;;;;;;;10.27;2.75;;;15.70;99.90;;;;;;5033789;28;20475;-74
2022/10/22 06:49:01;;;;;;;10.82;2.42;;;15.70;99.90;;;;;;5033970;28;20041;-74
2022/10/22 06:51:27;;;;;;;7.47;2.08;;;15.60;99.90;;;;;;5034267;28;20022;-74
2022/10/22 06:53:55;;;;;;;9.57;2.13;;;15.60;99.90;;;;;;5033097;28;20037;-74
2022/10/22 06:56:23;;;;;;;7.47;2.60;;;15.60;99.90;;;;;;5033859;28;20350;-76
2022/10/22 06:58:54;;;;;;;6.97;2.50;;;15.60;99.90;;;;;;5033951;28;20083;-73
2022/10/22 07:01:23;;;;;;;13.10;2.70;;;15.60;99.90;;;;;;5033975;28;20017;-77
2022/10/22 07:03:50;;;;;;;6.90;2.38;;;15.50;99.90;;;;;;5033554;28;20112;-77
2022/10/22 07:06:17;;;;;;;12.32;2.65;;;15.60;99.90;;;;;;5033751;28;20025;-76
2022/10/22 07:08:43;;;;;;;14.60;2.60;;;15.50;99.90;;;;;;5032771;28;20124;-76
2022/10/22 07:11:13;;;;;;;12.60;2.92;;;15.50;99.90;;;;;;5032353;28;20104;-74
2022/10/22 07:13:39;;;;;;;6.10;2.08;;;15.60;99.90;;;;;;5032616;28;20060;-74
2022/10/22 07:16:06;;;;;;;6.97;2.47;;;15.70;99.90;;;;;;5032269;28;20045;-74
2022/10/22 07:18:32;;;;;;;7.60;2.50;;;15.70;99.90;;;;;;5032463;28;20029;-74
2022/10/22 07:20:58;;;;;;;9.88;3.15;;;15.80;99.90;;;;;;5032097;28;20574;-74
2022/10/22 07:23:25;;;;;;;10.77;2.45;;;15.80;99.90;;;;;;5031812;28;20029;-74
2022/10/22 07:25:51;;;;;;;8.30;2.75;;;15.80;99.90;;;;;;5032296;28;20025;-74
2022/10/22 07:28:16;;;;;;;8.30;2.80;;;15.80;99.90;;;;;;5032634;28;20038;-75
2022/10/22 07:30:42;;;;;;;8.73;2.83;;;15.80;99.90;;;;;;5032202;28;20527;-76
2022/10/22 07:33:08;;;;;;;10.18;2.80;;;15.80;99.90;;;;;;5032221;28;20091;-75
2022/10/22 07:35:35;;;;;;;13.18;2.92;;;15.70;99.90;;;;;;5034338;28;20029;-75
2022/10/22 07:38:00;;;;;;;7.50;2.13;;;15.70;99.90;;;;;;5034424;28;20086;-75
2022/10/22 07:40:26;;;;;;;6.82;2.55;;;15.70;99.90;;;;;;5032136;28;20458;-75
2022/10/22 07:42:52;;;;;;;8.70;2.20;;;15.80;99.90;;;;;;5031739;28;20033;-75
2022/10/22 07:45:17;;;;;;;11.35;2.67;;;15.80;99.90;;;;;;5031912;28;20055;-76
2022/10/22 07:47:43;;;;;;;5.80;1.83;;;15.80;99.90;;;;;;5031693;28;20088;-75
2022/10/22 07:50:09;;;;;;;10.45;2.58;;;15.80;99.90;;;;;;5030106;28;20033;-76
2022/10/22 07:52:34;;;;;;;8.40;2.05;;;15.80;99.90;;;;;;5033337;28;20067;-75
2022/10/22 07:55:00;;;;;;;10.52;2.28;;;15.90;99.90;;;;;;5033356;28;20021;-74
2022/10/22 07:57:25;;;;;;;13.50;2.45;;;15.90;99.90;;;;;;5033143;28;20048;-74
2022/10/22 07:59:51;;;;;;;9.57;2.03;;;15.90;99.90;;;;;;5033098;28;20024;-74
2022/10/22 08:02:17;;;;;;;9.50;2.40;;;15.90;99.90;;;;;;5033068;28;20025;-73
2022/10/22 08:04:45;;;;;;;7.80;2.28;;;16.00;99.90;;;;;;5032944;28;20108;-74
2022/10/22 08:07:10;;;;;;;9.38;2.20;;;16.00;99.90;;;;;;5036683;28;20420;-73
2022/10/22 08:09:36;;;;;;;11.60;2.72;;;16.10;99.90;;;;;;5036915;28;20033;-74
2022/10/22 08:12:02;;;;;;;9.68;2.45;;;16.10;99.90;;;;;;5037283;28;20029;-75
2022/10/22 08:14:27;;;;;;;11.88;2.70;;;16.10;99.90;;;;;;5036499;28;20065;-74
2022/10/22 08:16:53;;;;;;;10.95;2.10;;;16.20;99.90;;;;;;5036774;28;20025;-74
2022/10/22 08:19:20;;;;;;;10.15;2.72;;;16.20;99.90;;;;;;5036660;28;20026;-75
2022/10/22 08:21:46;;;;;;;9.45;2.95;;;16.20;99.90;;;;;;5036959;28;20022;-74
2022/10/22 08:24:12;;;;;;;10.05;2.05;;;16.20;99.90;;;;;;5036718;28;20030;-73
2022/10/22 08:26:39;;;;;;;6.03;1.58;;;16.20;99.90;;;;;;5036840;28;20087;-73
2022/10/22 08:29:04;;;;;;;8.50;1.80;;;16.20;99.90;;;;;;5036325;28;20132;-73
2022/10/22 08:31:30;;;;;;;10.95;2.45;;;16.20;99.90;;;;;;5037590;28;20096;-73
2022/10/22 08:33:55;;;;;;;10.63;2.28;;;16.30;99.90;;;;;;5038172;28;20104;-73
2022/10/22 08:36:21;;;;;;;7.65;1.73;;;16.20;99.90;;;;;;5036698;28;20021;-73
2022/10/22 08:38:46;;;;;;;7.40;1.80;;;16.30;99.90;;;;;;5036374;28;20422;-74
2022/10/22 08:41:16;;;;;;;9.20;1.48;;;16.30;99.90;;;;;;5036397;28;20025;-73
2022/10/22 08:44:16;;;;;;;13.90;2.30;;;16.30;99.90;;;;;;5036486;28;20037;-73
2022/10/22 08:47:15;;;;;;;7.25;1.70;;;16.30;99.90;;;;;;5036494;28;20032;-73
2022/10/22 08:49:41;;;;;;;10.65;1.92;;;16.30;99.90;;;;;;5036363;28;20034;-74
2022/10/22 08:52:12;;;;;;;6.43;1.73;;;16.30;99.90;;;;;;5036235;28;20018;-75
2022/10/22 08:54:57;;;;;;;9.40;2.05;;;16.40;99.90;;;;;;5036053;28;20144;-74
2022/10/22 08:57:34;;;;;;;6.45;1.92;;;16.40;99.90;;;;;;5036188;28;20025;-74
2022/10/22 09:00:06;;;;;;;12.85;1.45;;;16.40;99.90;;;;;;5035778;28;20029;-74
2022/10/22 09:02:37;;;;;;;12.55;1.77;;;16.50;99.90;;;;;;5036178;28;20104;-74
2022/10/22 09:05:20;;;;;;;9.68;2.05;;;16.40;99.90;;;;;;5035795;28;20022;-73
2022/10/22 09:07:49;;;;;;;13.52;2.00;;;16.40;99.90;;;;;;5035856;28;20078;-74
2022/10/22 09:10:19;;;;;;;9.00;1.60;;;16.50;99.90;;;;;;5035929;28;20065;-74
2022/10/22 09:12:47;;;;;;;7.47;1.30;;;16.50;99.90;;;;;;5036349;28;20029;-73
2022/10/22 09:15:14;;;;;;;9.80;1.73;;;16.40;99.90;;;;;;5036470;28;20030;-74
2022/10/22 09:18:00;;;;;;;9.95;1.63;;;16.40;99.90;;;;;;5034958;28;20373;-75
2022/10/22 09:20:39;;;;;;;9.55;1.13;;;16.40;99.90;;;;;;5035645;28;20140;-74
2022/10/22 09:23:38;;;;;;;7.38;1.63;;;16.40;99.90;;;;;;5035577;28;20030;-73
2022/10/22 09:26:14;;;;;;;13.35;1.63;;;16.40;99.90;;;;;;5035484;28;20034;-73
2022/10/22 09:28:40;;;;;;;7.43;0.82;;;16.30;99.90;;;;;;5037726;28;20064;-72
2022/10/22 09:31:13;;;;;;;10.63;1.35;;;16.30;99.90;;;;;;5039554;28;20025;-74
2022/10/22 09:33:43;;;;;;;11.15;1.60;;;16.30;99.90;;;;;;5035811;28;20056;-74
2022/10/22 09:36:15;;;;;;;10.27;1.35;;;16.30;99.90;;;;;;5035293;28;20481;-74
2022/10/22 09:38:49;;;;;;;12.30;1.95;;;16.20;99.90;;;;;;5035113;28;20596;-73
2022/10/22 09:41:15;;;;;;;10.98;1.60;;;16.30;99.90;;;;;;5035716;28;20041;-74
2022/10/22 09:43:41;;;;;;;10.07;1.85;;;16.30;99.90;;;;;;5035406;28;20105;-74
2022/10/22 09:46:20;;;;;;;13.05;2.50;;;16.30;99.90;;;;;;5035212;28;20061;-74
2022/10/22 09:49:02;;;;;;;9.57;1.33;;;16.20;99.90;;;;;;5035093;28;20033;-74
2022/10/22 09:51:47;;;;;;;7.55;1.27;;;16.30;99.90;;;;;;5035203;28;20428;-74
2022/10/22 09:54:38;;;;;;;10.95;1.48;;;16.30;99.90;;;;;;5034832;28;20025;-73
2022/10/22 09:57:17;;;;;;;10.02;1.05;;;16.30;99.90;;;;;;5035071;28;20096;-74
2022/10/22 09:59:46;;;;;;;7.25;1.45;;;16.40;99.90;;;;;;5034811;28;20026;-74
2022/10/22 10:02:19;;;;;;;9.18;1.58;;;16.40;99.90;;;;;;5035093;28;20029;-74
2022/10/22 10:04:56;;;;;;;6.68;1.10;;;16.40;99.90;;;;;;5035192;28;20029;-74
2022/10/22 10:07:29;;;;;;;9.25;1.38;;;16.40;99.90;;;;;;5034629;28;20389;-74
2022/10/22 10:09:54;;;;;;;8.40;1.23;;;16.40;99.90;;;;;;5034608;28;20033;-74
2022/10/22 10:12:43;;;;;;;12.18;1.50;;;16.50;99.90;;;;;;5034832;28;20037;-74
2022/10/22 10:15:16;;;;;;;8.90;1.60;;;16.50;99.90;;;;;;5034539;28;20037;-74
2022/10/22 10:17:57;;;;;;;10.20;1.58;;;16.50;99.90;;;;;;5034552;28;20022;-75
2022/10/22 10:20:32;;;;;;;12.98;1.60;;;16.50;99.90;;;;;;5034602;28;20087;-75
2022/10/22 10:23:09;;;;;;;9.38;1.50;;;16.50;99.90;;;;;;5034930;28;20396;-75
2022/10/22 10:26:01;;;;;;;10.68;1.42;;;16.60;99.90;;;;;;5045607;28;20037;-71
2022/10/22 10:28:38;;;;;;;10.18;1.70;;;16.60;99.90;;;;;;5037567;28;20033;-74
2022/10/22 10:31:39;;;;;;;10.60;1.92;;;16.60;99.90;;;;;;5034811;28;20049;-74
2022/10/22 10:34:21;;;;;;;9.48;1.35;;;16.60;99.90;;;;;;5033139;28;20075;-80
2022/10/22 10:37:13;;;;;;;7.60;1.35;;;16.60;99.90;;;;;;5034633;28;20071;-75
2022/10/22 10:39:51;;;;;;;11.45;1.70;;;16.60;99.90;;;;;;5034304;28;20041;-77
2022/10/22 10:42:44;;;;;;;9.82;1.90;;;16.60;99.90;;;;;;5034319;28;20083;-76
2022/10/22 10:45:18;;;;;;;10.43;1.85;;;16.60;99.90;;;;;;5033855;28;20488;-73
2022/10/22 10:48:28;;;;;;;8.88;1.45;;;16.60;99.90;;;;;;5033936;28;20051;-74
2022/10/22 10:51:07;;;;;;;11.07;1.80;;;16.70;99.90;;;;;;5033296;28;20049;-73
2022/10/22 10:53:38;;;;;;;8.63;1.30;;;16.70;99.90;;;;;;5033901;28;20026;-72
2022/10/22 10:56:31;;;;;;;7.32;1.67;;;16.80;99.90;;;;;;5033882;28;20025;-74
2022/10/22 10:59:22;;;;;;;10.60;1.40;;;16.90;99.90;;;;;;5034109;28;20028;-74
2022/10/22 11:02:29;;;;;;;8.73;1.50;;;17.00;99.90;;;;;;5032595;28;20041;-76
2022/10/22 11:05:29;;;;;;;8.10;2.28;;;17.20;99.90;;;;;;5032896;28;20036;-76
2022/10/22 11:07:59;;;;;;;6.68;1.38;;;17.40;99.90;;;;;;5031647;28;20060;-74
2022/10/22 11:10:43;;;;;;;6.53;1.00;;;17.50;99.90;;;;;;5034002;28;20029;-75
2022/10/22 11:13:11;;;;;;;9.38;1.45;;;17.60;99.90;;;;;;5033788;28;20032;-75
2022/10/22 11:15:38;;;;;;;8.85;1.30;;;17.70;99.90;;;;;;5033497;28;20025;-73
2022/10/22 11:18:13;;;;;;;9.50;1.70;;;17.80;99.90;;;;;;5033547;28;20412;-74
2022/10/22 11:20:45;;;;;;;10.00;1.38;;;17.90;99.90;;;;;;5034784;28;20045;-73
2022/10/22 11:23:17;;;;;;;15.82;1.80;;;17.90;99.90;;;;;;5035243;28;20104;-76
2022/10/22 11:25:47;;;;;;;15.40;1.80;;;18.00;99.90;;;;;;5033640;28;20100;-75
2022/10/22 11:28:31;;;;;;;13.38;1.65;;;18.00;99.60;;;;;;5033382;28;20370;-74
2022/10/22 11:31:03;;;;;;;10.85;1.10;;;18.00;99.50;;;;;;5032958;28;20060;-73
2022/10/22 11:33:55;;;;;;;10.23;1.50;;;18.10;99.30;;;;;;5033608;28;20026;-74
2022/10/22 11:36:23;;;;;;;13.83;1.43;;;18.10;98.80;;;;;;5033583;28;20035;-74
2022/10/22 11:38:51;;;;;;;12.52;1.58;;;18.20;98.50;;;;;;5033224;28;20064;-73
2022/10/22 11:41:20;;;;;;;12.80;2.10;;;18.20;98.40;;;;;;5031436;28;20030;-73
2022/10/22 11:43:58;;;;;;;13.50;2.28;;;18.20;98.30;;;;;;5033242;28;20393;-73
2022/10/22 11:46:26;;;;;;;8.25;1.48;;;18.20;98.30;;;;;;5033318;28;20079;-74
2022/10/22 11:49:23;;;;;;;13.40;1.52;;;18.20;98.00;;;;;;5033231;28;20045;-73
2022/10/22 11:51:49;;;;;;;11.10;1.40;;;18.20;97.90;;;;;;5032518;28;20033;-75
2022/10/22 11:54:28;;;;;;;13.60;1.58;;;18.20;97.80;;;;;;5032922;28;20024;-75
2022/10/22 11:57:18;;;;;;;9.40;1.25;;;18.20;97.70;;;;;;5033448;28;20073;-74
2022/10/22 11:59:50;;;;;;;11.63;1.35;;;18.20;97.50;;;;;;5032497;28;20064;-73
2022/10/22 12:02:27;;;;;;;8.70;1.10;;;18.20;97.40;;;;;;5032879;28;20385;-73
2022/10/22 12:05:22;;;;;;;10.02;1.40;;;18.10;97.40;;;;;;5033159;28;20399;-71
2022/10/22 12:08:20;;;;;;;9.43;1.40;;;18.10;97.50;;;;;;5032086;28;20025;-73
2022/10/22 12:11:01;;;;;;;10.10;1.38;;;18.00;97.50;;;;;;5032902;28;20036;-73
2022/10/22 12:13:48;;;;;;;10.90;1.55;;;18.00;97.60;;;;;;5033182;28;20359;-72
2022/10/22 12:16:13;;;;;;;10.63;1.92;;;18.10;97.30;;;;;;5031669;28;20037;-73
2022/10/22 12:18:43;;;;;;;9.70;1.70;;;18.10;97.30;;;;;;5037992;28;20033;-70
2022/10/22 12:21:13;;;;;;;11.50;1.10;;;18.10;97.20;;;;;;5033716;28;20030;-73
2022/10/22 12:23:39;;;;;;;12.07;1.58;;;18.20;97.50;;;;;;5033118;28;20029;-72
2022/10/22 12:26:05;;;;;;;10.70;1.65;;;18.30;97.40;;;;;;5032813;28;20022;-72
2022/10/22 12:28:39;;;;;;;12.20;1.23;;;18.40;97.40;;;;;;5032559;28;20133;-72
2022/10/22 12:31:05;;;;;;;8.05;1.02;;;18.50;97.40;;;;;;5032819;28;20031;-72
2022/10/22 12:33:31;;;;;;;12.73;1.35;;;18.50;97.20;;;;;;5032801;28;20477;-76
2022/10/22 12:35:59;;;;;;;10.40;1.63;;;18.40;96.80;;;;;;5033172;28;20109;-75
2022/10/22 12:38:25;;;;;;;12.43;1.65;;;18.40;96.90;;;;;;5032621;28;20041;-74
2022/10/22 12:40:54;;;;;;;11.98;1.55;;;18.30;97.00;;;;;;5032805;28;20022;-77
2022/10/22 12:43:29;;;;;;;14.65;1.40;;;18.20;97.20;;;;;;5032443;28;20029;-74
2022/10/22 12:45:56;;;;;;;14.45;1.40;;;18.10;97.10;;;;;;5032637;28;20465;-75
2022/10/22 12:48:35;;;;;;;11.77;1.25;;;18.10;97.00;;;;;;5032749;28;20038;-74
2022/10/22 12:51:03;;;;;;;12.30;1.15;;;18.00;97.20;;;;;;5032510;28;20104;-74
2022/10/22 12:53:36;;;;;;;8.90;1.10;;;18.00;97.20;;;;;;5034206;28;20474;-75
2022/10/22 12:56:05;;;;;;;17.10;2.95;;;18.00;97.20;;;;;;5036400;28;20025;-74
2022/10/22 12:58:37;;;;;;;15.55;1.65;;;18.10;97.00;;;;;;5035948;28;20025;-75
2022/10/22 13:01:03;;;;;;;18.33;1.65;;;18.10;97.20;;;;;;5037023;28;20063;-77
2022/10/22 13:03:41;;;;;;;7.30;1.00;;;18.20;97.10;;;;;;5036814;28;20033;-76